Time;durP1;ratioP1;P1;durP2;ratioP2;P2;SDS_P1;SDS_P2;PMS_P1;PMS_P2;Temp;Humidity;BMP_temperature;BMP_pressure;BME280_temperature;BME280_humidity;BME280_pressure;Samples;Min_cycle;Max_cycle;Signal;HPM_P1;HPM_P2
2021/12/18 00:01:50;;;;;;;0.73;0.73;;;;;;;-1.40;90.17;99100.91;4935626;29;20142;-88
2021/12/18 00:04:17;;;;;;;0.90;0.90;;;;;;;-1.40;89.93;99107.00;4936182;29;20050;-89
2021/12/18 00:06:45;;;;;;;0.77;0.77;;;;;;;-1.39;89.64;99108.69;4936409;29;20511;-88
2021/12/18 00:09:12;;;;;;;0.80;0.80;;;;;;;-1.39;89.48;99102.56;4937724;29;20526;-90
2021/12/18 00:11:39;;;;;;;0.75;0.75;;;;;;;-1.40;89.70;99109.66;4937246;29;20052;-88
2021/12/18 00:14:06;;;;;;;0.80;0.80;;;;;;;-1.39;89.83;99111.34;4919090;29;20043;-88
2021/12/18 00:16:33;;;;;;;0.80;0.80;;;;;;;-1.38;89.76;99112.16;4936242;29;20056;-89
2021/12/18 00:19:01;;;;;;;0.77;0.77;;;;;;;-1.40;89.93;99101.72;4933982;29;20098;-89
2021/12/18 00:21:28;;;;;;;0.80;0.80;;;;;;;-1.43;90.00;99099.41;4939877;29;20066;-88
2021/12/18 00:24:06;;;;;;;0.80;0.80;;;;;;;-1.45;90.42;99100.56;4943429;29;20116;-90
2021/12/18 00:26:34;;;;;;;0.73;0.73;;;;;;;-1.42;90.72;99097.56;4920377;29;20055;-87
2021/12/18 00:29:01;;;;;;;0.80;0.80;;;;;;;-1.39;90.78;99106.03;4935571;29;20056;-87
2021/12/18 00:31:28;;;;;;;0.90;0.90;;;;;;;-1.34;90.67;99103.72;4935360;29;20095;-88
2021/12/18 00:33:55;;;;;;;0.70;0.70;;;;;;;-1.34;90.60;99102.91;4936391;29;20044;-88
2021/12/18 00:36:25;;;;;;;0.80;0.80;;;;;;;-1.34;90.58;99108.19;4918312;29;20047;-89
2021/12/18 00:38:52;;;;;;;0.80;0.80;;;;;;;-1.37;90.44;99111.16;4918453;29;20102;-87
2021/12/18 00:42:01;;;;;;;0.80;0.80;;;;;;;-1.47;90.38;99103.38;4939107;29;20055;-89
2021/12/18 00:44:16;;;;;;;0.80;0.80;;;;;;;-1.41;90.59;99110.66;4917187;29;20048;-87
2021/12/18 00:46:45;;;;;;;0.80;0.80;;;;;;;-1.35;90.41;99106.53;4937317;29;20048;-88
2021/12/18 00:49:17;;;;;;;0.80;0.80;;;;;;;-1.36;90.43;99108.34;4918279;29;20051;-88
2021/12/18 00:51:45;;;;;;;0.80;0.80;;;;;;;-1.37;90.10;99114.66;4935459;29;20066;-86
2021/12/18 00:54:12;;;;;;;0.82;0.82;;;;;;;-1.44;89.90;99105.72;4935034;29;20562;-87
2021/12/18 00:56:41;;;;;;;0.90;0.90;;;;;;;-1.38;90.03;99112.97;4932583;29;20656;-88
2021/12/18 00:59:09;;;;;;;0.90;0.90;;;;;;;-1.36;90.17;99111.00;4935096;29;20079;-86
2021/12/18 01:01:36;;;;;;;0.80;0.80;;;;;;;-1.29;90.28;99118.25;4932236;29;20044;-90
2021/12/18 01:04:03;;;;;;;0.80;0.80;;;;;;;-1.29;90.12;99115.63;4935349;29;20422;-90
2021/12/18 01:06:31;;;;;;;0.80;0.80;;;;;;;-1.33;90.35;99115.94;4934450;29;20134;-88
2021/12/18 01:08:59;;;;;;;0.90;0.90;;;;;;;-1.37;90.30;99119.09;4934366;29;20054;-88
2021/12/18 01:11:42;;;;;;;0.80;0.80;;;;;;;-1.40;90.63;99122.06;4933281;29;20102;-93
2021/12/18 01:16:58;;;;;;;0.60;0.60;;;;;;;-1.36;90.78;99124.22;4936804;29;20542;-90
2021/12/18 01:25:02;;;;;;;0.80;0.80;;;;;;;-1.37;90.64;99119.09;4935629;29;20048;-90
2021/12/18 01:27:29;;;;;;;0.70;0.70;;;;;;;-1.37;90.61;99119.94;4938392;29;20519;-90
2021/12/18 01:29:56;;;;;;;0.80;0.80;;;;;;;-1.44;90.75;99115.44;4958063;28;20066;-88
2021/12/18 01:32:25;;;;;;;0.80;0.80;;;;;;;-1.45;90.94;99114.63;4948808;29;20051;-90
2021/12/18 01:34:53;;;;;;;0.80;0.80;;;;;;;-1.45;91.21;99111.97;4937580;29;20056;-89
2021/12/18 01:37:20;;;;;;;0.80;0.80;;;;;;;-1.43;91.09;99107.34;4938431;29;20076;-91
2021/12/18 01:39:48;;;;;;;0.90;0.90;;;;;;;-1.44;91.27;99111.00;4922379;29;20058;-91
2021/12/18 01:45:12;;;;;;;0.80;0.80;;;;;;;-1.37;91.07;99108.50;4944112;29;20051;-90
2021/12/18 01:53:11;;;;;;;0.70;0.70;;;;;;;-1.34;91.05;99116.97;4927822;29;20082;-90
2021/12/18 01:55:39;;;;;;;0.73;0.73;;;;;;;-1.32;91.22;99116.78;4942492;29;20052;-90
2021/12/18 01:58:07;;;;;;;0.80;0.80;;;;;;;-1.35;90.96;99115.28;4950361;29;20036;-87
2021/12/18 02:00:41;;;;;;;0.80;0.80;;;;;;;-1.35;90.95;99125.06;4947482;29;20052;-89
2021/12/18 02:03:08;;;;;;;0.80;0.80;;;;;;;-1.33;90.94;99126.53;4941231;29;20091;-91
2021/12/18 02:05:37;;;;;;;0.80;0.80;;;;;;;-1.34;90.73;99129.38;4941896;29;20051;-90
2021/12/18 02:08:05;;;;;;;0.70;0.70;;;;;;;-1.34;90.20;99129.38;4940284;29;20056;-89
2021/12/18 02:10:45;;;;;;;0.82;0.82;;;;;;;-1.33;90.23;99129.19;4940639;29;20047;-91
2021/12/18 02:21:32;;;;;;;0.80;0.80;;;;;;;-1.38;89.95;99125.38;4935882;29;20056;-91
2021/12/18 02:24:00;;;;;;;0.80;0.80;;;;;;;-1.34;89.98;99130.19;4940452;29;20094;-91
2021/12/18 02:26:27;;;;;;;0.80;0.80;;;;;;;-1.32;89.82;99128.22;4939878;29;20057;-89
2021/12/18 02:28:58;;;;;;;0.88;0.88;;;;;;;-1.27;90.03;99130.34;4939735;29;20526;-89
2021/12/18 02:31:30;;;;;;;0.70;0.70;;;;;;;-1.26;90.00;99126.72;4939650;29;20075;-90
2021/12/18 02:34:02;;;;;;;0.80;0.80;;;;;;;-1.29;89.55;99120.91;4940133;29;20048;-90
2021/12/18 02:36:31;;;;;;;0.80;0.80;;;;;;;-1.33;89.41;99123.91;4939944;29;20080;-90
2021/12/18 02:39:20;;;;;;;0.80;0.80;;;;;;;-1.34;89.30;99124.91;4922375;29;20047;-90
2021/12/18 02:42:08;;;;;;;0.70;0.70;;;;;;;-1.33;89.22;99134.50;4939780;29;20056;-89
2021/12/18 02:44:36;;;;;;;0.73;0.73;;;;;;;-1.28;89.18;99130.53;4939070;29;20088;-91
2021/12/18 02:47:03;;;;;;;0.90;0.90;;;;;;;-1.27;88.90;99135.63;4921646;29;20055;-90
2021/12/18 02:49:30;;;;;;;1.00;1.00;;;;;;;-1.34;89.24;99143.44;4939071;29;20511;-91
2021/12/18 02:51:57;;;;;;;0.82;0.82;;;;;;;-1.37;89.62;99129.69;4940588;29;20073;-90
2021/12/18 02:54:26;;;;;;;0.77;0.77;;;;;;;-1.44;90.02;99145.41;4922826;29;20471;-91
2021/12/18 02:56:53;;;;;;;0.80;0.80;;;;;;;-1.56;89.83;99141.44;4941267;29;20082;-91
2021/12/18 02:59:21;;;;;;;0.80;0.80;;;;;;;-1.62;89.80;99139.41;4939307;29;20151;-90
2021/12/18 03:01:49;;;;;;;0.80;0.80;;;;;;;-1.64;89.20;99144.88;4938985;29;20067;-91
2021/12/18 03:04:25;;;;;;;0.80;0.80;;;;;;;-1.66;88.40;99138.09;4922888;29;20048;-91
2021/12/18 03:06:58;;;;;;;0.75;0.75;;;;;;;-1.70;87.90;99139.41;4940055;29;20125;-90
2021/12/18 03:25:41;;;;;;;;;;;;;;;-1.66;85.29;99146.03;4939720;29;20083;-91
2021/12/18 03:28:08;;;;;;;0.80;0.80;;;;;;;-1.73;85.05;99140.56;4941547;29;19974;-88
2021/12/18 03:30:41;;;;;;;0.90;0.90;;;;;;;-1.76;85.00;99141.72;4924490;29;20171;-89
2021/12/18 03:33:08;;;;;;;0.80;0.80;;;;;;;-1.79;84.65;99149.97;4949193;29;20075;-88
2021/12/18 03:35:35;;;;;;;0.60;0.60;;;;;;;-1.83;84.49;99155.75;4944166;29;20086;-91
2021/12/18 03:38:03;;;;;;;0.90;0.90;;;;;;;-1.90;83.95;99155.59;4939626;29;20080;-88
2021/12/18 03:40:33;;;;;;;0.90;0.90;;;;;;;-2.00;83.91;99154.84;4939106;29;20056;-89
2021/12/18 03:43:01;;;;;;;0.80;0.80;;;;;;;-2.07;84.02;99159.16;4922386;29;20063;-90
2021/12/18 03:45:28;;;;;;;0.88;0.88;;;;;;;-2.15;83.83;99156.47;4938163;29;20051;-90
2021/12/18 03:47:55;;;;;;;0.82;0.82;;;;;;;-2.23;83.97;99163.41;4938501;29;20052;-89
2021/12/18 03:50:22;;;;;;;0.90;0.90;;;;;;;-2.33;84.13;99159.19;4920968;29;20056;-90
2021/12/18 03:52:49;;;;;;;0.77;0.77;;;;;;;-2.41;83.86;99163.44;4938672;29;20055;-90
2021/12/18 03:55:19;;;;;;;1.00;1.00;;;;;;;-2.46;84.15;99165.72;4939160;29;20127;-91
2021/12/18 03:57:46;;;;;;;0.80;0.80;;;;;;;-2.42;83.67;99166.25;4921632;29;20051;-90
2021/12/18 04:00:15;;;;;;;0.85;0.85;;;;;;;-2.36;83.42;99176.19;4938203;29;20052;-89
2021/12/18 04:02:43;;;;;;;0.82;0.82;;;;;;;-2.35;83.00;99172.59;4937743;29;20090;-89
2021/12/18 04:05:11;;;;;;;0.82;0.82;;;;;;;-2.29;82.32;99182.50;4939447;29;20058;-90
2021/12/18 04:07:43;;;;;;;0.80;0.80;;;;;;;-2.22;81.48;99172.97;4941287;29;20063;-90
2021/12/18 04:10:13;;;;;;;0.90;0.90;;;;;;;-2.16;80.48;99176.78;4939905;29;20174;-91
2021/12/18 04:12:41;;;;;;;0.90;0.90;;;;;;;-2.14;80.61;99193.34;4937002;29;20423;-88
2021/12/18 04:15:10;;;;;;;0.77;0.77;;;;;;;-2.14;80.39;99184.56;4939127;29;20058;-91
2021/12/18 04:17:38;;;;;;;0.80;0.80;;;;;;;-2.11;79.41;99184.25;4922063;29;20048;-88
2021/12/18 04:20:06;;;;;;;0.80;0.80;;;;;;;-2.08;78.71;99194.50;4938685;29;20058;-89
2021/12/18 04:22:34;;;;;;;0.90;0.90;;;;;;;-2.06;77.97;99187.25;4938482;29;20054;-90
2021/12/18 04:25:01;;;;;;;0.90;0.90;;;;;;;-2.03;77.70;99189.56;4939494;29;20103;-89
2021/12/18 04:27:28;;;;;;;0.77;0.77;;;;;;;-2.02;77.46;99178.84;4923029;29;20039;-90
2021/12/18 04:29:55;;;;;;;0.90;0.90;;;;;;;-1.98;77.23;99176.69;4878019;29;20122;-90
2021/12/18 04:32:25;;;;;;;0.90;0.90;;;;;;;-2.00;75.82;99176.88;4950330;29;20048;-90
2021/12/18 04:34:55;;;;;;;0.70;0.70;;;;;;;-2.01;75.95;99184.94;4927100;29;20102;-89
2021/12/18 04:37:23;;;;;;;0.80;0.80;;;;;;;-2.03;76.15;99185.09;4938021;29;20450;-91
2021/12/18 04:39:51;;;;;;;0.90;0.90;;;;;;;-2.02;76.14;99180.66;4903736;29;20138;-90
2021/12/18 04:42:21;;;;;;;0.82;0.82;;;;;;;-2.03;76.42;99179.00;4937902;29;20454;-90
2021/12/18 04:44:48;;;;;;;0.80;0.80;;;;;;;-2.02;76.52;99172.72;4921365;29;20456;-91
2021/12/18 04:47:16;;;;;;;0.82;0.82;;;;;;;-2.01;76.47;99180.50;4938071;29;20110;-90
2021/12/18 04:49:47;;;;;;;0.90;0.90;;;;;;;-1.94;76.60;99185.16;4922401;29;20482;-92
2021/12/18 04:52:14;;;;;;;0.88;0.88;;;;;;;-1.94;77.04;99188.63;4938664;29;20566;-89
2021/12/18 04:54:41;;;;;;;0.80;0.80;;;;;;;-1.97;77.50;99181.84;4921217;29;20110;-91
2021/12/18 04:57:08;;;;;;;0.80;0.80;;;;;;;-1.98;78.18;99189.91;4939230;29;20071;-90
2021/12/18 04:59:42;;;;;;;0.90;0.90;;;;;;;-2.08;78.97;99189.22;4939166;29;20130;-91
2021/12/18 05:02:11;;;;;;;0.80;0.80;;;;;;;-2.19;79.74;99188.50;4940172;29;20049;-90
2021/12/18 05:04:46;;;;;;;0.80;0.80;;;;;;;-2.28;80.36;99189.47;4939972;29;20067;-91
2021/12/18 05:07:14;;;;;;;0.95;0.95;;;;;;;-2.35;80.82;99188.44;4944860;29;20092;-88
2021/12/18 05:09:41;;;;;;;0.90;0.90;;;;;;;-2.36;80.99;99192.06;4955816;29;20055;-89
2021/12/18 05:12:10;;;;;;;0.80;0.80;;;;;;;-2.40;81.33;99194.19;4955894;29;20048;-88
2021/12/18 05:14:38;;;;;;;0.60;0.60;;;;;;;-2.42;81.20;99190.88;4944477;29;20102;-91
2021/12/18 05:17:05;;;;;;;0.90;0.90;;;;;;;-2.40;81.22;99188.09;4944764;29;20451;-90
2021/12/18 05:19:32;;;;;;;0.90;0.90;;;;;;;-2.41;81.25;99194.34;4944199;29;20095;-90
2021/12/18 05:22:00;;;;;;;0.70;0.70;;;;;;;-2.42;81.46;99190.06;4949119;29;20051;-89
2021/12/18 05:24:27;;;;;;;0.90;0.90;;;;;;;-2.43;81.39;99194.50;4951071;29;20052;-87
2021/12/18 05:26:54;;;;;;;0.70;0.70;;;;;;;-2.45;81.03;99199.13;4945079;29;20062;-90
2021/12/18 05:29:22;;;;;;;0.90;0.90;;;;;;;-2.47;80.49;99200.25;4944221;29;20086;-89
2021/12/18 05:31:51;;;;;;;0.90;0.90;;;;;;;-2.51;80.45;99196.25;4937102;29;20091;-91
2021/12/18 05:34:24;;;;;;;0.90;0.90;;;;;;;-2.51;80.14;99190.97;4947901;29;20047;-89
2021/12/18 05:39:26;;;;;;;0.80;0.80;;;;;;;-2.45;79.35;99182.44;4943925;29;20103;-89
2021/12/18 05:41:56;;;;;;;0.80;0.80;;;;;;;-2.46;78.28;99180.78;4929496;29;20019;-90
2021/12/18 05:44:25;;;;;;;0.80;0.80;;;;;;;-2.48;78.20;99190.66;4955367;29;20079;-90
2021/12/18 05:46:53;;;;;;;0.80;0.80;;;;;;;-2.46;78.34;99191.34;4940146;29;20062;-89
2021/12/18 05:49:20;;;;;;;0.80;0.80;;;;;;;-2.43;78.08;99188.38;4939053;29;20228;-88
2021/12/18 05:51:48;;;;;;;0.90;0.90;;;;;;;-2.42;78.25;99188.22;4946570;29;20123;-90
2021/12/18 05:54:21;;;;;;;0.70;0.70;;;;;;;-2.36;78.38;99193.88;4952144;29;20047;-89
2021/12/18 05:56:48;;;;;;;0.70;0.70;;;;;;;-2.38;78.53;99193.19;4944669;29;20051;-92
2021/12/18 05:59:17;;;;;;;0.80;0.80;;;;;;;-2.39;77.96;99195.03;4934097;29;20495;-91
2021/12/18 06:01:45;;;;;;;0.90;0.90;;;;;;;-2.41;77.14;99204.91;4947978;29;20099;-90
2021/12/18 06:04:12;;;;;;;0.70;0.70;;;;;;;-2.43;76.91;99193.66;4933744;29;20083;-91
2021/12/18 06:06:40;;;;;;;0.88;0.88;;;;;;;-2.46;77.27;99201.91;4938906;29;20051;-92
2021/12/18 06:09:07;;;;;;;0.80;0.80;;;;;;;-2.49;77.27;99202.22;4938021;29;20063;-85
2021/12/18 06:11:37;;;;;;;0.82;0.82;;;;;;;-2.54;77.51;99194.75;4942880;29;20055;-91
2021/12/18 06:14:09;;;;;;;0.90;0.90;;;;;;;-2.58;77.66;99204.00;4941804;29;20143;-92
2021/12/18 06:16:38;;;;;;;0.80;0.80;;;;;;;-2.62;78.08;99206.13;4940100;29;20052;-87
2021/12/18 06:19:05;;;;;;;0.75;0.75;;;;;;;-2.62;78.03;99200.81;4939888;29;20438;-89
2021/12/18 06:21:32;;;;;;;0.75;0.75;;;;;;;-2.60;78.23;99210.44;4936045;29;20575;-93
2021/12/18 06:24:00;;;;;;;0.80;0.80;;;;;;;-2.64;77.92;99194.88;4942576;29;20099;-92
2021/12/18 06:26:27;;;;;;;0.70;0.70;;;;;;;-2.61;77.65;99201.66;4943051;29;20531;-87
2021/12/18 06:28:55;;;;;;;0.90;0.90;;;;;;;-2.63;77.65;99203.66;4951702;29;20048;-93
2021/12/18 06:31:31;;;;;;;0.80;0.80;;;;;;;-2.65;77.51;99193.22;4939176;29;20051;-91
2021/12/18 06:34:00;;;;;;;0.80;0.80;;;;;;;-2.60;77.51;99203.31;4949789;29;20495;-92
2021/12/18 06:36:28;;;;;;;0.80;0.80;;;;;;;-2.59;77.40;99209.44;4951337;29;20048;-93
2021/12/18 06:38:55;;;;;;;0.77;0.77;;;;;;;-2.52;77.59;99206.00;4955553;29;20052;-94
2021/12/18 06:41:25;;;;;;;0.70;0.70;;;;;;;-2.52;76.91;99194.63;4953832;29;20105;-94
2021/12/18 06:43:52;;;;;;;0.73;0.73;;;;;;;-2.50;75.96;99203.22;4952062;29;20067;-91
2021/12/18 06:46:20;;;;;;;0.90;0.90;;;;;;;-2.49;75.03;99202.22;4965935;28;20066;-94
2021/12/18 06:48:48;;;;;;;0.75;0.75;;;;;;;-2.52;74.68;99203.38;4955149;29;20048;-96
2021/12/18 06:51:27;;;;;;;0.90;0.90;;;;;;;-2.52;74.59;99198.09;4944248;29;20075;-96
2021/12/18 06:54:02;;;;;;;0.70;0.70;;;;;;;-2.46;74.05;99199.28;4952440;29;20060;-88
2021/12/18 06:56:32;;;;;;;0.80;0.80;;;;;;;-2.44;72.79;99189.38;4762230;23;10002897;-91
2021/12/18 06:59:00;;;;;;;0.77;0.77;;;;;;;-2.55;72.39;99197.59;4983591;28;20315;-89
2021/12/18 07:01:27;;;;;;;0.80;0.80;;;;;;;-2.52;71.33;99203.38;4977024;28;20085;-93
2021/12/18 07:03:57;;;;;;;0.85;0.85;;;;;;;-2.46;71.27;99199.28;4971729;28;20061;-90
2021/12/18 07:06:26;;;;;;;0.80;0.80;;;;;;;-2.46;70.04;99207.19;4954776;28;20447;-86
2021/12/18 07:08:53;;;;;;;0.90;0.90;;;;;;;-2.47;70.21;99202.91;4955676;29;20081;-86
2021/12/18 07:11:24;;;;;;;0.98;0.98;;;;;;;-2.52;69.22;99194.63;4921671;29;20066;-83
2021/12/18 07:13:51;;;;;;;0.80;0.80;;;;;;;-2.55;69.84;99193.13;4954652;28;20055;-82
2021/12/18 07:16:20;;;;;;;0.73;0.73;;;;;;;-2.47;69.74;99198.44;4970617;28;20055;-88
2021/12/18 07:18:51;;;;;;;0.80;0.80;;;;;;;-2.50;69.29;99195.31;4924323;28;20070;-87
2021/12/18 07:21:22;;;;;;;0.80;0.80;;;;;;;-2.50;69.57;99195.31;4927195;28;20061;-93
2021/12/18 07:23:54;;;;;;;0.88;0.88;;;;;;;-2.40;70.20;99191.56;4959011;28;20133;-90
2021/12/18 07:26:23;;;;;;;0.75;0.75;;;;;;;-2.33;70.01;99196.19;4975962;28;20047;-91
2021/12/18 07:28:52;;;;;;;0.90;0.90;;;;;;;-2.32;69.84;99198.69;4956540;28;20146;-88
2021/12/18 07:31:19;;;;;;;0.95;0.95;;;;;;;-2.27;70.00;99199.06;4938046;28;20077;-88
2021/12/18 07:33:47;;;;;;;0.90;0.90;;;;;;;-2.21;70.12;99201.06;4956411;28;20054;-88
2021/12/18 07:36:17;;;;;;;0.90;0.90;;;;;;;-2.19;70.21;99207.03;4981738;28;20109;-86
2021/12/18 07:38:48;;;;;;;0.80;0.80;;;;;;;-2.17;70.50;99212.16;4974626;28;20118;-84
2021/12/18 07:41:16;;;;;;;0.80;0.80;;;;;;;-2.16;71.00;99203.22;4987193;28;20086;-87
2021/12/18 07:43:44;;;;;;;0.80;0.80;;;;;;;-2.10;71.05;99207.06;4963568;28;20050;-88
2021/12/18 07:46:11;;;;;;;0.80;0.80;;;;;;;-2.05;70.71;99213.56;4936329;28;20074;-86
2021/12/18 07:48:39;;;;;;;0.80;0.80;;;;;;;-2.05;69.98;99205.63;4971065;28;20074;-86
2021/12/18 07:51:06;;;;;;;0.90;0.90;;;;;;;-2.07;69.61;99206.75;4953953;28;20058;-87
2021/12/18 07:53:34;;;;;;;0.90;0.90;;;;;;;-2.13;69.80;99204.72;4957602;28;20042;-92
2021/12/18 07:56:04;;;;;;;0.90;0.90;;;;;;;-2.11;69.98;99202.75;4975646;28;20105;-89
2021/12/18 07:58:32;;;;;;;0.90;0.90;;;;;;;-2.11;69.59;99200.94;4975468;28;20085;-90
2021/12/18 08:01:00;;;;;;;0.77;0.77;;;;;;;-2.14;69.90;99203.09;4943680;28;20059;-91
2021/12/18 08:03:27;;;;;;;0.90;0.90;;;;;;;-2.14;70.43;99203.09;4977394;28;20687;-89
2021/12/18 08:05:55;;;;;;;0.90;0.90;;;;;;;-2.14;71.32;99200.44;4974606;28;20129;-87
2021/12/18 08:08:22;;;;;;;0.80;0.80;;;;;;;-2.12;72.02;99198.47;4971859;28;20055;-88
2021/12/18 08:10:49;;;;;;;0.90;0.90;;;;;;;-2.16;73.17;99186.53;4971892;28;20055;-87
2021/12/18 08:13:16;;;;;;;0.80;0.80;;;;;;;-2.22;74.12;99180.06;4956296;28;20053;-87
2021/12/18 08:16:09;;;;;;;0.90;0.90;;;;;;;-2.27;75.52;99180.53;4957402;28;20050;-91
2021/12/18 08:18:42;;;;;;;0.80;0.80;;;;;;;-2.33;76.05;99181.19;4993825;28;20110;-95
2021/12/18 08:21:10;;;;;;;0.90;0.90;;;;;;;-2.32;76.60;99171.44;4978832;28;20047;-91
2021/12/18 08:23:37;;;;;;;0.85;0.85;;;;;;;-2.36;76.87;99170.09;4968343;28;20049;-89
2021/12/18 08:26:06;;;;;;;0.90;0.90;;;;;;;-2.39;77.22;99171.22;4974771;28;20053;-92
2021/12/18 08:28:37;;;;;;;0.80;0.80;;;;;;;-2.39;77.59;99171.22;4984825;28;20109;-93
2021/12/18 08:31:31;;;;;;;0.95;0.95;;;;;;;-2.43;77.88;99169.88;4986400;28;20058;-88
2021/12/18 08:34:07;;;;;;;0.85;0.85;;;;;;;-2.40;78.21;99156.38;4956760;28;20050;-90
2021/12/18 08:36:35;;;;;;;0.82;0.82;;;;;;;-2.46;78.21;99141.94;4956795;28;20057;-90
2021/12/18 08:39:05;;;;;;;0.80;0.80;;;;;;;-2.36;78.62;99151.59;4980171;28;20046;-90
2021/12/18 08:41:36;;;;;;;0.88;0.88;;;;;;;-2.37;78.68;99140.19;4975867;28;20047;-91
2021/12/18 08:44:06;;;;;;;0.80;0.80;;;;;;;-2.38;78.87;99135.03;4942628;28;20051;-89
2021/12/18 08:46:34;;;;;;;0.90;0.90;;;;;;;-2.36;79.29;99131.25;4962279;28;20063;-90
2021/12/18 08:49:19;;;;;;;0.90;0.90;;;;;;;-2.33;79.16;99133.59;4978998;28;20117;-89
2021/12/18 08:51:54;;;;;;;0.90;0.90;;;;;;;-2.40;79.14;99130.75;4941085;28;20102;-92
2021/12/18 08:54:28;;;;;;;0.88;0.88;;;;;;;-2.40;79.34;99135.22;4946035;28;20556;-89
2021/12/18 08:57:12;;;;;;;0.90;0.90;;;;;;;-2.42;79.77;99131.91;4947031;28;20054;-94
2021/12/18 08:59:42;;;;;;;0.90;0.90;;;;;;;-2.33;79.89;99130.13;4959310;28;20552;-87
2021/12/18 09:02:11;;;;;;;0.75;0.75;;;;;;;-2.37;80.28;99120.84;4970348;28;20437;-92
2021/12/18 09:04:45;;;;;;;0.90;0.90;;;;;;;-2.36;80.30;99122.50;4990325;28;20085;-88
2021/12/18 09:07:17;;;;;;;0.80;0.80;;;;;;;-2.28;80.40;99110.16;4966488;28;20046;-95
2021/12/18 09:09:45;;;;;;;0.90;0.90;;;;;;;-2.27;80.24;99105.69;4912199;29;20493;-89
2021/12/18 09:12:13;;;;;;;0.90;0.90;;;;;;;-2.17;80.11;99105.56;4959150;28;20074;-88
2021/12/18 09:14:44;;;;;;;0.70;0.70;;;;;;;-2.31;79.56;99104.34;4950390;28;20053;-90
2021/12/18 09:17:20;;;;;;;0.90;0.90;;;;;;;-2.36;79.44;99091.59;4970019;28;20089;-91
2021/12/18 09:20:06;;;;;;;0.90;0.90;;;;;;;-2.30;79.51;99096.28;4950230;28;20061;-90
2021/12/18 09:22:38;;;;;;;0.80;0.80;;;;;;;-2.32;79.23;99087.66;4933043;29;20051;-95
2021/12/18 09:25:37;;;;;;;0.90;0.90;;;;;;;-2.26;79.38;99092.31;4962001;28;20116;-93
2021/12/18 09:28:12;;;;;;;0.70;0.70;;;;;;;-2.28;79.13;99081.09;4926825;29;20089;-94
2021/12/18 09:30:54;;;;;;;0.90;0.90;;;;;;;-2.23;78.75;99089.34;4922741;29;20051;-92
2021/12/18 09:33:22;;;;;;;0.93;0.93;;;;;;;-2.17;77.89;99090.53;4926560;29;20054;-91
2021/12/18 09:35:50;;;;;;;0.80;0.80;;;;;;;-2.24;77.25;99068.34;4924847;29;20075;-88
2021/12/18 09:38:19;;;;;;;0.90;0.90;;;;;;;-2.22;76.28;99069.84;4962917;29;20067;-89
2021/12/18 09:44:18;;;;;;;0.90;0.90;;;;;;;-2.15;74.40;99070.03;4974021;28;20449;-89
2021/12/18 09:48:08;;;;;;;0.90;0.90;;;;;;;-2.44;72.88;99055.41;4962793;28;20057;-88
2021/12/18 09:50:54;;;;;;;;;;;;;;;;;;;;;
2021/12/18 09:53:22;;;;;;;0.80;0.80;;;;;;;-2.37;73.08;99047.66;4943225;28;19930;-87
2021/12/18 09:55:49;;;;;;;0.90;0.90;;;;;;;-2.27;72.48;99058.94;4976905;28;20054;-88
2021/12/18 09:58:16;;;;;;;0.80;0.80;;;;;;;-2.34;72.58;99052.63;4965926;28;20055;-92
2021/12/18 10:00:44;;;;;;;0.90;0.90;;;;;;;-2.33;73.10;99058.72;4975044;28;20051;-91
2021/12/18 10:03:11;;;;;;;0.85;0.85;;;;;;;-2.28;73.32;99054.66;4976154;28;20235;-90
2021/12/18 10:05:38;;;;;;;0.85;0.85;;;;;;;-2.25;72.72;99050.84;4979135;28;20600;-88
2021/12/18 10:08:18;;;;;;;0.80;0.80;;;;;;;-2.32;72.47;99039.25;5001669;28;20068;-90
2021/12/18 10:11:06;;;;;;;0.90;0.90;;;;;;;-2.38;70.76;99040.75;4962013;28;20410;-87
2021/12/18 10:13:58;;;;;;;0.90;0.90;;;;;;;-2.33;70.79;99038.44;4990717;28;20050;-86
2021/12/18 10:16:29;;;;;;;0.98;0.98;;;;;;;-2.30;70.78;99032.81;4925264;28;20632;-88
2021/12/18 10:18:58;;;;;;;0.90;0.90;;;;;;;-2.24;70.68;99032.16;4956907;28;20078;-89
2021/12/18 10:22:04;;;;;;;1.00;1.00;;;;;;;-2.22;70.38;99037.31;4945821;29;20052;-89
2021/12/18 10:24:33;;;;;;;0.80;0.80;;;;;;;-2.23;70.42;99028.56;4946528;29;20035;-87
2021/12/18 10:27:41;;;;;;;0.98;0.98;;;;;;;-2.28;70.28;99035.28;4946617;29;20052;-90
2021/12/18 10:30:13;;;;;;;0.73;0.73;;;;;;;-2.38;70.95;99030.16;4930106;29;20052;-89
2021/12/18 10:33:04;;;;;;;0.90;0.90;;;;;;;-2.40;71.35;99040.06;4931160;29;20144;-90
2021/12/18 10:35:48;;;;;;;1.00;1.00;;;;;;;-2.44;71.95;99034.25;4944389;29;20075;-93
2021/12/18 10:38:42;;;;;;;0.83;0.83;;;;;;;-2.43;72.29;99040.34;4939456;29;20059;-91
2021/12/18 10:41:37;;;;;;;0.80;0.80;;;;;;;-2.37;72.47;99041.56;4931734;29;20315;-89
2021/12/18 10:44:09;;;;;;;0.80;0.80;;;;;;;-2.37;72.40;99036.28;4925943;29;20067;-88
2021/12/18 10:46:44;;;;;;;0.80;0.80;;;;;;;-2.40;72.54;99032.13;4955056;28;20078;-88
2021/12/18 10:49:18;;;;;;;0.80;0.80;;;;;;;-2.42;72.26;99044.69;4917692;29;20059;-90
2021/12/18 10:51:56;;;;;;;0.80;0.80;;;;;;;-2.50;72.10;99029.63;4936813;29;20088;-86
2021/12/18 10:54:24;;;;;;;0.77;0.77;;;;;;;-2.57;72.06;99044.47;4940632;29;20051;-86
2021/12/18 10:56:56;;;;;;;0.70;0.70;;;;;;;-2.63;71.37;99035.34;4949287;29;20068;-88
2021/12/18 10:59:36;;;;;;;0.90;0.90;;;;;;;-2.70;71.03;99034.34;4952283;29;20116;-90
2021/12/18 11:02:11;;;;;;;0.90;0.90;;;;;;;-2.69;71.51;99035.97;4953649;29;20063;-84
2021/12/18 11:04:40;;;;;;;0.75;0.75;;;;;;;-2.67;71.29;99031.38;4942959;29;20063;-88
2021/12/18 11:07:19;;;;;;;1.00;1.00;;;;;;;-2.66;71.59;99033.03;4946340;29;20051;-92
2021/12/18 11:10:00;;;;;;;0.90;0.90;;;;;;;-2.65;71.44;99031.22;4944676;29;20140;-92
2021/12/18 11:15:22;;;;;;;0.80;0.80;;;;;;;-2.73;69.88;99029.38;4944998;29;20055;-89
2021/12/18 11:17:51;;;;;;;0.90;0.90;;;;;;;-2.77;70.00;99030.66;4946315;29;20075;-90
2021/12/18 11:20:33;;;;;;;0.93;0.93;;;;;;;-2.76;70.64;99026.19;4921939;29;20083;-91
2021/12/18 11:23:02;;;;;;;0.73;0.73;;;;;;;-2.76;70.27;99021.78;4920956;29;20048;-89
2021/12/18 11:25:56;;;;;;;0.80;0.80;;;;;;;-2.74;70.09;99013.66;4907624;29;20103;-90
2021/12/18 11:28:31;;;;;;;0.80;0.80;;;;;;;-2.73;69.62;99017.97;4921580;29;20056;-90
2021/12/18 11:30:58;;;;;;;0.90;0.90;;;;;;;-2.77;69.11;99009.53;4908943;29;20056;-87
2021/12/18 11:33:25;;;;;;;0.77;0.77;;;;;;;-2.78;68.72;99001.78;4923149;29;20079;-89
2021/12/18 11:36:03;;;;;;;0.90;0.90;;;;;;;-2.86;68.63;99013.13;4923020;29;20419;-89
2021/12/18 11:38:35;;;;;;;0.90;0.90;;;;;;;-2.84;68.54;99012.00;4926467;29;20504;-89
2021/12/18 11:41:02;;;;;;;0.90;0.90;;;;;;;-2.82;68.79;99006.53;4910844;29;20048;-87
2021/12/18 11:43:40;;;;;;;0.85;0.85;;;;;;;-2.90;68.99;99002.06;4923735;29;20048;-91
2021/12/18 11:46:27;;;;;;;0.98;0.98;;;;;;;-2.94;69.03;99002.53;4905700;29;20066;-89
2021/12/18 11:48:57;;;;;;;0.70;0.70;;;;;;;-3.01;69.28;99004.13;4923309;29;20424;-89
2021/12/18 11:51:24;;;;;;;0.80;0.80;;;;;;;-2.93;69.71;98998.91;4906530;29;20052;-91
2021/12/18 11:53:51;;;;;;;0.95;0.95;;;;;;;-2.85;69.97;98999.75;4926611;29;20048;-90
2021/12/18 11:56:22;;;;;;;0.93;0.93;;;;;;;-2.79;70.30;99000.94;4923916;29;20048;-88
2021/12/18 11:58:51;;;;;;;1.00;1.00;;;;;;;-2.78;70.35;98996.50;4930978;29;20443;-89
2021/12/18 12:01:25;;;;;;;0.70;0.70;;;;;;;-2.72;70.92;99001.13;4936694;29;20052;-90
2021/12/18 12:03:53;;;;;;;0.90;0.90;;;;;;;-2.76;70.98;98994.50;4938782;29;20058;-90
2021/12/18 12:06:38;;;;;;;0.82;0.82;;;;;;;-2.75;71.05;98983.78;4920769;29;20087;-89
2021/12/18 12:09:28;;;;;;;0.70;0.70;;;;;;;-2.90;70.59;98988.03;4935898;29;20055;-89
2021/12/18 12:12:05;;;;;;;0.70;0.70;;;;;;;-3.01;70.83;98983.00;4956002;29;20047;-90
2021/12/18 12:14:34;;;;;;;0.80;0.80;;;;;;;-3.08;71.08;98981.00;4957832;28;20101;-91
2021/12/18 12:17:15;;;;;;;0.80;0.80;;;;;;;-3.09;71.71;98973.22;4958899;28;20055;-90
2021/12/18 12:19:50;;;;;;;0.80;0.80;;;;;;;-3.06;71.99;98962.38;4965326;28;20097;-89
2021/12/18 12:22:56;;;;;;;0.70;0.70;;;;;;;-3.00;72.34;98961.72;4965375;28;20062;-91
2021/12/18 12:25:35;;;;;;;0.80;0.80;;;;;;;-2.98;71.92;98958.94;4979890;28;20046;-89
2021/12/18 12:28:21;;;;;;;0.85;0.85;;;;;;;-3.00;72.07;98955.63;4982825;28;20057;-89
2021/12/18 12:31:00;;;;;;;0.90;0.90;;;;;;;-3.06;71.65;98957.09;4979417;28;20057;-89
2021/12/18 12:33:35;;;;;;;0.70;0.70;;;;;;;-3.11;72.12;98948.81;4984697;28;20050;-90
2021/12/18 12:36:09;;;;;;;0.80;0.80;;;;;;;-3.07;72.62;98947.50;4983569;28;20058;-90
2021/12/18 12:38:39;;;;;;;0.80;0.80;;;;;;;-3.12;72.37;98940.06;4979507;28;20050;-90
2021/12/18 12:41:26;;;;;;;0.80;0.80;;;;;;;-3.11;72.82;98949.66;4975930;28;20149;-91
2021/12/18 12:43:59;;;;;;;0.90;0.90;;;;;;;-3.10;72.81;98937.28;4977845;28;20050;-90
2021/12/18 12:46:27;;;;;;;0.80;0.80;;;;;;;-3.11;72.33;98943.53;4987196;28;20047;-90